sensor_id;sensor_type;location;lat;lon;timestamp;temperature;humidity
1680;DHT22;838;51.794;12.258;2022-12-26T00:01:33;10.50;57.10
1680;DHT22;838;51.794;12.258;2022-12-26T00:04:00;10.50;57.30
1680;DHT22;838;51.794;12.258;2022-12-26T00:06:27;10.50;57.10
1680;DHT22;838;51.794;12.258;2022-12-26T00:08:53;10.60;56.20
1680;DHT22;838;51.794;12.258;2022-12-26T00:11:20;10.60;54.90
1680;DHT22;838;51.794;12.258;2022-12-26T00:13:46;10.60;54.70
1680;DHT22;838;51.794;12.258;2022-12-26T00:16:18;10.60;55.50
1680;DHT22;838;51.794;12.258;2022-12-26T00:18:44;10.60;55.10
1680;DHT22;838;51.794;12.258;2022-12-26T00:21:12;10.50;55.30
1680;DHT22;838;51.794;12.258;2022-12-26T00:23:39;10.50;55.20
1680;DHT22;838;51.794;12.258;2022-12-26T00:26:07;10.50;55.60
1680;DHT22;838;51.794;12.258;2022-12-26T00:28:33;10.50;55.40
1680;DHT22;838;51.794;12.258;2022-12-26T00:31:06;10.50;55.60
1680;DHT22;838;51.794;12.258;2022-12-26T00:33:33;10.50;56.20
1680;DHT22;838;51.794;12.258;2022-12-26T00:36:06;10.40;57.50
1680;DHT22;838;51.794;12.258;2022-12-26T00:38:33;10.40;57.50
1680;DHT22;838;51.794;12.258;2022-12-26T00:40:59;10.50;57.10
1680;DHT22;838;51.794;12.258;2022-12-26T00:43:25;10.40;56.60
1680;DHT22;838;51.794;12.258;2022-12-26T00:45:51;10.50;56.60
1680;DHT22;838;51.794;12.258;2022-12-26T00:48:17;10.50;56.40
1680;DHT22;838;51.794;12.258;2022-12-26T00:50:43;10.50;56.30
1680;DHT22;838;51.794;12.258;2022-12-26T00:53:08;10.40;56.50
1680;DHT22;838;51.794;12.258;2022-12-26T00:55:34;10.40;56.30
1680;DHT22;838;51.794;12.258;2022-12-26T00:58:00;10.40;56.20
1680;DHT22;838;51.794;12.258;2022-12-26T01:00:26;10.40;56.30
1680;DHT22;838;51.794;12.258;2022-12-26T01:02:51;10.40;56.00
1680;DHT22;838;51.794;12.258;2022-12-26T01:05:17;10.40;56.20
1680;DHT22;838;51.794;12.258;2022-12-26T01:07:43;10.40;56.30
1680;DHT22;838;51.794;12.258;2022-12-26T01:10:11;10.30;56.60
1680;DHT22;838;51.794;12.258;2022-12-26T01:12:38;10.30;56.90
1680;DHT22;838;51.794;12.258;2022-12-26T01:15:04;10.30;57.30
1680;DHT22;838;51.794;12.258;2022-12-26T01:17:30;10.40;57.20
1680;DHT22;838;51.794;12.258;2022-12-26T01:19:56;10.40;57.00
1680;DHT22;838;51.794;12.258;2022-12-26T01:22:23;10.40;57.10
1680;DHT22;838;51.794;12.258;2022-12-26T01:24:55;10.50;56.20
1680;DHT22;838;51.794;12.258;2022-12-26T01:27:22;10.50;55.40
1680;DHT22;838;51.794;12.258;2022-12-26T01:29:47;10.50;55.50
1680;DHT22;838;51.794;12.258;2022-12-26T01:32:13;10.50;54.80
1680;DHT22;838;51.794;12.258;2022-12-26T01:34:40;10.60;54.40
1680;DHT22;838;51.794;12.258;2022-12-26T01:37:05;10.60;53.70
1680;DHT22;838;51.794;12.258;2022-12-26T01:39:31;10.60;53.40
1680;DHT22;838;51.794;12.258;2022-12-26T01:41:57;10.60;53.30
1680;DHT22;838;51.794;12.258;2022-12-26T01:53:04;10.80;51.70
1680;DHT22;838;51.794;12.258;2022-12-26T01:55:33;10.80;51.50
1680;DHT22;838;51.794;12.258;2022-12-26T01:58:06;10.80;51.40
1680;DHT22;838;51.794;12.258;2022-12-26T02:00:36;10.80;51.60
1680;DHT22;838;51.794;12.258;2022-12-26T02:03:02;10.80;51.30
1680;DHT22;838;51.794;12.258;2022-12-26T02:05:47;11.00;50.10
1680;DHT22;838;51.794;12.258;2022-12-26T02:08:18;11.10;49.10
1680;DHT22;838;51.794;12.258;2022-12-26T02:11:16;11.20;48.70
1680;DHT22;838;51.794;12.258;2022-12-26T02:13:43;11.30;46.80
1680;DHT22;838;51.794;12.258;2022-12-26T02:16:12;11.70;45.20
1680;DHT22;838;51.794;12.258;2022-12-26T02:18:38;11.80;40.90
1680;DHT22;838;51.794;12.258;2022-12-26T02:31:47;11.90;37.10
1680;DHT22;838;51.794;12.258;2022-12-26T02:34:25;11.80;38.30
1680;DHT22;838;51.794;12.258;2022-12-26T02:42:28;11.70;41.40
1680;DHT22;838;51.794;12.258;2022-12-26T02:45:01;11.60;40.70
1680;DHT22;838;51.794;12.258;2022-12-26T02:48:11;11.50;41.20
1680;DHT22;838;51.794;12.258;2022-12-26T02:56:50;11.30;43.90
1680;DHT22;838;51.794;12.258;2022-12-26T03:02:51;11.20;45.10
1680;DHT22;838;51.794;12.258;2022-12-26T03:06:03;11.30;45.30
1680;DHT22;838;51.794;12.258;2022-12-26T03:09:21;11.20;45.50
1680;DHT22;838;51.794;12.258;2022-12-26T03:12:40;11.20;46.00
1680;DHT22;838;51.794;12.258;2022-12-26T03:15:29;11.20;46.60
1680;DHT22;838;51.794;12.258;2022-12-26T03:18:17;11.20;46.50
1680;DHT22;838;51.794;12.258;2022-12-26T03:20:44;11.20;47.40
1680;DHT22;838;51.794;12.258;2022-12-26T03:23:12;11.30;47.20
1680;DHT22;838;51.794;12.258;2022-12-26T03:25:53;11.30;46.90
1680;DHT22;838;51.794;12.258;2022-12-26T03:28:39;11.40;46.80
1680;DHT22;838;51.794;12.258;2022-12-26T03:31:09;11.40;46.70
1680;DHT22;838;51.794;12.258;2022-12-26T03:33:38;11.40;45.60
1680;DHT22;838;51.794;12.258;2022-12-26T03:36:31;11.40;46.20
1680;DHT22;838;51.794;12.258;2022-12-26T03:49:22;11.50;45.20
1680;DHT22;838;51.794;12.258;2022-12-26T03:55:24;11.60;44.70
1680;DHT22;838;51.794;12.258;2022-12-26T03:58:36;11.70;44.60
1680;DHT22;838;51.794;12.258;2022-12-26T04:01:19;11.70;44.20
1680;DHT22;838;51.794;12.258;2022-12-26T04:04:07;11.80;43.40
1680;DHT22;838;51.794;12.258;2022-12-26T04:06:57;11.90;42.20
1680;DHT22;838;51.794;12.258;2022-12-26T04:09:57;11.90;42.50
1680;DHT22;838;51.794;12.258;2022-12-26T04:12:44;11.80;42.90
1680;DHT22;838;51.794;12.258;2022-12-26T04:15:50;11.80;42.80
1680;DHT22;838;51.794;12.258;2022-12-26T04:18:51;11.80;43.10
1680;DHT22;838;51.794;12.258;2022-12-26T04:21:57;11.70;43.40
1680;DHT22;838;51.794;12.258;2022-12-26T04:27:52;11.80;43.40
1680;DHT22;838;51.794;12.258;2022-12-26T04:30:40;11.70;43.10
1680;DHT22;838;51.794;12.258;2022-12-26T04:33:33;11.70;43.50
1680;DHT22;838;51.794;12.258;2022-12-26T04:36:30;11.70;43.20
1680;DHT22;838;51.794;12.258;2022-12-26T04:39:20;11.70;43.60
1680;DHT22;838;51.794;12.258;2022-12-26T04:42:06;11.70;43.40
1680;DHT22;838;51.794;12.258;2022-12-26T04:44:52;11.70;43.40
1680;DHT22;838;51.794;12.258;2022-12-26T04:47:18;11.80;42.40
1680;DHT22;838;51.794;12.258;2022-12-26T04:49:44;11.80;42.90
1680;DHT22;838;51.794;12.258;2022-12-26T04:52:28;11.70;43.30
1680;DHT22;838;51.794;12.258;2022-12-26T04:55:15;11.70;42.90
1680;DHT22;838;51.794;12.258;2022-12-26T04:57:41;11.50;43.10
1680;DHT22;838;51.794;12.258;2022-12-26T05:00:07;11.50;43.90
1680;DHT22;838;51.794;12.258;2022-12-26T05:02:33;11.40;44.30
1680;DHT22;838;51.794;12.258;2022-12-26T05:05:17;11.40;44.20
1680;DHT22;838;51.794;12.258;2022-12-26T05:08:01;11.40;44.80
1680;DHT22;838;51.794;12.258;2022-12-26T05:10:46;11.40;44.10
1680;DHT22;838;51.794;12.258;2022-12-26T05:13:11;11.40;44.30
1680;DHT22;838;51.794;12.258;2022-12-26T05:15:37;11.40;44.20
1680;DHT22;838;51.794;12.258;2022-12-26T05:18:21;11.50;44.10
1680;DHT22;838;51.794;12.258;2022-12-26T05:21:11;11.50;43.70
1680;DHT22;838;51.794;12.258;2022-12-26T05:23:57;11.50;43.40
1680;DHT22;838;51.794;12.258;2022-12-26T05:26:41;11.50;43.80
1680;DHT22;838;51.794;12.258;2022-12-26T05:29:26;11.60;43.50
1680;DHT22;838;51.794;12.258;2022-12-26T05:31:51;11.60;42.80
1680;DHT22;838;51.794;12.258;2022-12-26T05:34:17;11.60;42.70
1680;DHT22;838;51.794;12.258;2022-12-26T05:36:52;11.60;42.80
1680;DHT22;838;51.794;12.258;2022-12-26T05:39:19;11.60;42.40
1680;DHT22;838;51.794;12.258;2022-12-26T05:41:45;11.60;42.60
1680;DHT22;838;51.794;12.258;2022-12-26T05:44:11;11.60;42.30
1680;DHT22;838;51.794;12.258;2022-12-26T05:46:37;11.60;42.20
1680;DHT22;838;51.794;12.258;2022-12-26T05:49:04;11.70;42.00
1680;DHT22;838;51.794;12.258;2022-12-26T05:51:30;11.70;41.60
1680;DHT22;838;51.794;12.258;2022-12-26T05:53:56;11.80;41.20
1680;DHT22;838;51.794;12.258;2022-12-26T05:56:22;11.80;40.90
1680;DHT22;838;51.794;12.258;2022-12-26T05:58:53;11.80;40.90
1680;DHT22;838;51.794;12.258;2022-12-26T06:01:19;11.80;40.30
1680;DHT22;838;51.794;12.258;2022-12-26T06:03:51;11.80;40.20
1680;DHT22;838;51.794;12.258;2022-12-26T06:06:18;11.90;40.50
1680;DHT22;838;51.794;12.258;2022-12-26T06:08:48;11.90;39.90
1680;DHT22;838;51.794;12.258;2022-12-26T06:11:14;11.80;40.50
1680;DHT22;838;51.794;12.258;2022-12-26T06:13:40;11.80;40.70
1680;DHT22;838;51.794;12.258;2022-12-26T06:16:12;11.80;40.90
1680;DHT22;838;51.794;12.258;2022-12-26T06:18:38;11.70;41.30
1680;DHT22;838;51.794;12.258;2022-12-26T06:21:05;11.70;41.70
1680;DHT22;838;51.794;12.258;2022-12-26T06:23:32;11.60;42.10
1680;DHT22;838;51.794;12.258;2022-12-26T06:25:58;11.70;42.00
1680;DHT22;838;51.794;12.258;2022-12-26T06:28:24;11.70;41.60
1680;DHT22;838;51.794;12.258;2022-12-26T06:30:51;11.80;40.90
1680;DHT22;838;51.794;12.258;2022-12-26T06:33:17;11.80;40.70
1680;DHT22;838;51.794;12.258;2022-12-26T06:35:43;11.90;41.00
1680;DHT22;838;51.794;12.258;2022-12-26T06:38:09;11.90;41.00
1680;DHT22;838;51.794;12.258;2022-12-26T06:40:39;11.80;40.90
1680;DHT22;838;51.794;12.258;2022-12-26T06:43:06;11.80;41.20
1680;DHT22;838;51.794;12.258;2022-12-26T06:45:32;11.80;40.90
1680;DHT22;838;51.794;12.258;2022-12-26T06:47:57;11.80;40.90
1680;DHT22;838;51.794;12.258;2022-12-26T06:50:24;11.80;40.90
1680;DHT22;838;51.794;12.258;2022-12-26T06:52:50;11.80;40.90
1680;DHT22;838;51.794;12.258;2022-12-26T06:55:16;11.80;40.50
1680;DHT22;838;51.794;12.258;2022-12-26T06:57:41;11.90;40.50
1680;DHT22;838;51.794;12.258;2022-12-26T07:00:07;11.90;39.90
1680;DHT22;838;51.794;12.258;2022-12-26T07:02:35;11.90;40.10
1680;DHT22;838;51.794;12.258;2022-12-26T07:05:01;11.90;40.20
1680;DHT22;838;51.794;12.258;2022-12-26T07:07:26;12.00;39.30
1680;DHT22;838;51.794;12.258;2022-12-26T07:09:52;11.90;39.90
1680;DHT22;838;51.794;12.258;2022-12-26T07:12:18;11.90;39.50
1680;DHT22;838;51.794;12.258;2022-12-26T07:14:46;11.80;40.10
1680;DHT22;838;51.794;12.258;2022-12-26T07:17:12;11.80;40.40
1680;DHT22;838;51.794;12.258;2022-12-26T07:19:37;11.80;40.20
1680;DHT22;838;51.794;12.258;2022-12-26T07:22:03;11.80;40.20
1680;DHT22;838;51.794;12.258;2022-12-26T07:24:29;11.80;40.50
1680;DHT22;838;51.794;12.258;2022-12-26T07:26:55;11.80;40.80
1680;DHT22;838;51.794;12.258;2022-12-26T07:29:20;11.80;40.90
1680;DHT22;838;51.794;12.258;2022-12-26T07:31:47;11.80;40.90
1680;DHT22;838;51.794;12.258;2022-12-26T07:34:13;11.80;40.70
1680;DHT22;838;51.794;12.258;2022-12-26T07:36:39;11.90;40.40
1680;DHT22;838;51.794;12.258;2022-12-26T07:39:05;12.00;39.50
1680;DHT22;838;51.794;12.258;2022-12-26T07:41:31;12.10;38.70
1680;DHT22;838;51.794;12.258;2022-12-26T07:44:15;12.10;38.70
1680;DHT22;838;51.794;12.258;2022-12-26T07:46:40;12.20;38.60
1680;DHT22;838;51.794;12.258;2022-12-26T07:49:07;12.30;37.80
1680;DHT22;838;51.794;12.258;2022-12-26T07:51:32;12.40;37.60
1680;DHT22;838;51.794;12.258;2022-12-26T07:53:58;12.30;37.50
1680;DHT22;838;51.794;12.258;2022-12-26T07:56:24;12.40;37.10
1680;DHT22;838;51.794;12.258;2022-12-26T07:58:50;12.40;36.80
1680;DHT22;838;51.794;12.258;2022-12-26T08:01:16;12.50;37.10
1680;DHT22;838;51.794;12.258;2022-12-26T08:03:42;12.70;35.40
1680;DHT22;838;51.794;12.258;2022-12-26T08:06:09;13.00;33.70
1680;DHT22;838;51.794;12.258;2022-12-26T08:08:35;13.10;32.40
1680;DHT22;838;51.794;12.258;2022-12-26T08:11:04;13.00;32.40
1680;DHT22;838;51.794;12.258;2022-12-26T08:13:30;12.80;32.80
1680;DHT22;838;51.794;12.258;2022-12-26T08:15:57;12.60;34.00
1680;DHT22;838;51.794;12.258;2022-12-26T08:18:24;12.60;35.20
1680;DHT22;838;51.794;12.258;2022-12-26T08:20:50;12.70;35.30
1680;DHT22;838;51.794;12.258;2022-12-26T08:23:16;13.00;32.90
1680;DHT22;838;51.794;12.258;2022-12-26T08:25:42;13.10;32.00
1680;DHT22;838;51.794;12.258;2022-12-26T08:28:08;13.00;32.20
1680;DHT22;838;51.794;12.258;2022-12-26T08:30:34;12.60;34.50
1680;DHT22;838;51.794;12.258;2022-12-26T08:33:00;12.50;36.00
1680;DHT22;838;51.794;12.258;2022-12-26T08:35:25;12.30;37.60
1680;DHT22;838;51.794;12.258;2022-12-26T08:37:51;12.20;38.90
1680;DHT22;838;51.794;12.258;2022-12-26T08:40:17;12.10;39.90
1680;DHT22;838;51.794;12.258;2022-12-26T08:42:42;12.00;41.10
1680;DHT22;838;51.794;12.258;2022-12-26T08:45:08;12.00;42.10
1680;DHT22;838;51.794;12.258;2022-12-26T08:47:34;11.80;42.70
1680;DHT22;838;51.794;12.258;2022-12-26T08:49:59;11.80;45.00
1680;DHT22;838;51.794;12.258;2022-12-26T08:52:25;11.70;46.00
1680;DHT22;838;51.794;12.258;2022-12-26T08:54:51;11.70;45.90
1680;DHT22;838;51.794;12.258;2022-12-26T08:57:16;11.80;45.80
1680;DHT22;838;51.794;12.258;2022-12-26T08:59:42;11.70;47.80
1680;DHT22;838;51.794;12.258;2022-12-26T09:02:11;11.80;47.30
1680;DHT22;838;51.794;12.258;2022-12-26T09:04:37;12.00;45.90
1680;DHT22;838;51.794;12.258;2022-12-26T09:07:03;12.00;46.50
1680;DHT22;838;51.794;12.258;2022-12-26T09:09:29;12.20;45.00
1680;DHT22;838;51.794;12.258;2022-12-26T09:11:54;12.30;43.20
1680;DHT22;838;51.794;12.258;2022-12-26T09:14:20;12.20;43.00
1680;DHT22;838;51.794;12.258;2022-12-26T09:16:46;11.90;46.40
1680;DHT22;838;51.794;12.258;2022-12-26T09:19:14;11.70;48.50
1680;DHT22;838;51.794;12.258;2022-12-26T09:21:43;11.50;51.40
1680;DHT22;838;51.794;12.258;2022-12-26T09:24:12;11.70;51.40
1680;DHT22;838;51.794;12.258;2022-12-26T09:26:38;11.80;49.70
1680;DHT22;838;51.794;12.258;2022-12-26T09:29:04;11.70;51.20
1680;DHT22;838;51.794;12.258;2022-12-26T09:31:32;11.70;51.70
1680;DHT22;838;51.794;12.258;2022-12-26T09:34:00;11.70;52.10
1680;DHT22;838;51.794;12.258;2022-12-26T09:36:30;11.60;52.80
1680;DHT22;838;51.794;12.258;2022-12-26T09:38:57;11.50;54.50
1680;DHT22;838;51.794;12.258;2022-12-26T09:47:34;11.30;63.30
1680;DHT22;838;51.794;12.258;2022-12-26T09:50:12;11.30;65.60
1680;DHT22;838;51.794;12.258;2022-12-26T09:58:10;11.60;63.50
1680;DHT22;838;51.794;12.258;2022-12-26T10:00:50;11.70;62.30
1680;DHT22;838;51.794;12.258;2022-12-26T10:03:17;11.70;60.80
1680;DHT22;838;51.794;12.258;2022-12-26T10:06:00;11.70;60.70
1680;DHT22;838;51.794;12.258;2022-12-26T10:14:20;11.70;59.50
1680;DHT22;838;51.794;12.258;2022-12-26T10:17:38;11.70;59.70
1680;DHT22;838;51.794;12.258;2022-12-26T10:22:36;12.00;57.90
1680;DHT22;838;51.794;12.258;2022-12-26T10:25:27;11.90;57.70
1680;DHT22;838;51.794;12.258;2022-12-26T10:27:58;11.80;58.40
1680;DHT22;838;51.794;12.258;2022-12-26T10:30:33;11.80;58.20
1680;DHT22;838;51.794;12.258;2022-12-26T10:33:03;11.90;59.30
1680;DHT22;838;51.794;12.258;2022-12-26T10:35:38;12.00;56.20
1680;DHT22;838;51.794;12.258;2022-12-26T10:40:59;12.00;54.20
1680;DHT22;838;51.794;12.258;2022-12-26T10:43:33;12.10;55.30
1680;DHT22;838;51.794;12.258;2022-12-26T10:48:30;12.50;52.70
1680;DHT22;838;51.794;12.258;2022-12-26T10:50:56;12.80;51.30
1680;DHT22;838;51.794;12.258;2022-12-26T10:53:22;12.90;49.20
1680;DHT22;838;51.794;12.258;2022-12-26T10:55:47;12.80;48.90
1680;DHT22;838;51.794;12.258;2022-12-26T10:58:15;12.80;49.20
1680;DHT22;838;51.794;12.258;2022-12-26T11:00:41;12.50;50.30
1680;DHT22;838;51.794;12.258;2022-12-26T11:03:08;12.40;51.00
1680;DHT22;838;51.794;12.258;2022-12-26T11:05:46;12.30;52.60
1680;DHT22;838;51.794;12.258;2022-12-26T11:11:06;12.10;53.70
1680;DHT22;838;51.794;12.258;2022-12-26T11:13:38;12.00;54.50
1680;DHT22;838;51.794;12.258;2022-12-26T11:16:06;12.00;56.90
1680;DHT22;838;51.794;12.258;2022-12-26T11:18:50;12.00;57.10
1680;DHT22;838;51.794;12.258;2022-12-26T11:23:42;12.00;58.60
1680;DHT22;838;51.794;12.258;2022-12-26T11:26:26;11.90;58.10
1680;DHT22;838;51.794;12.258;2022-12-26T11:29:09;12.00;58.40
1680;DHT22;838;51.794;12.258;2022-12-26T11:31:36;12.00;58.40
1680;DHT22;838;51.794;12.258;2022-12-26T11:34:12;12.20;57.10
1680;DHT22;838;51.794;12.258;2022-12-26T11:36:46;12.20;55.30
1680;DHT22;838;51.794;12.258;2022-12-26T11:39:21;12.00;56.00
1680;DHT22;838;51.794;12.258;2022-12-26T11:41:47;11.90;58.30
1680;DHT22;838;51.794;12.258;2022-12-26T11:44:17;11.80;58.90
1680;DHT22;838;51.794;12.258;2022-12-26T11:49:34;11.70;60.50
1680;DHT22;838;51.794;12.258;2022-12-26T11:54:54;11.70;61.80
1680;DHT22;838;51.794;12.258;2022-12-26T11:57:26;11.60;60.50
1680;DHT22;838;51.794;12.258;2022-12-26T11:59:52;11.60;59.90
1680;DHT22;838;51.794;12.258;2022-12-26T12:02:26;11.50;60.70
1680;DHT22;838;51.794;12.258;2022-12-26T12:05:12;11.40;61.70
1680;DHT22;838;51.794;12.258;2022-12-26T12:15:51;11.40;62.40
1680;DHT22;838;51.794;12.258;2022-12-26T12:21:28;11.50;61.90
1680;DHT22;838;51.794;12.258;2022-12-26T12:24:25;11.50;61.10
1680;DHT22;838;51.794;12.258;2022-12-26T12:35:21;11.50;60.00
1680;DHT22;838;51.794;12.258;2022-12-26T12:38:13;11.50;58.90
1680;DHT22;838;51.794;12.258;2022-12-26T12:43:19;11.40;58.60
1680;DHT22;838;51.794;12.258;2022-12-26T12:57:42;11.10;59.50
1680;DHT22;838;51.794;12.258;2022-12-26T13:00:11;11.20;60.10
1680;DHT22;838;51.794;12.258;2022-12-26T13:06:04;11.10;60.70
1680;DHT22;838;51.794;12.258;2022-12-26T13:08:51;11.10;59.00
1680;DHT22;838;51.794;12.258;2022-12-26T13:13:59;11.10;60.10
1680;DHT22;838;51.794;12.258;2022-12-26T13:16:35;11.10;59.60
1680;DHT22;838;51.794;12.258;2022-12-26T13:19:15;11.10;58.20
1680;DHT22;838;51.794;12.258;2022-12-26T13:21:42;11.10;58.00
1680;DHT22;838;51.794;12.258;2022-12-26T13:26:56;11.10;56.40
1680;DHT22;838;51.794;12.258;2022-12-26T13:29:44;11.10;56.20
1680;DHT22;838;51.794;12.258;2022-12-26T13:32:30;11.00;55.90
1680;DHT22;838;51.794;12.258;2022-12-26T13:35:00;10.90;57.20
1680;DHT22;838;51.794;12.258;2022-12-26T13:42:44;10.80;58.00
1680;DHT22;838;51.794;12.258;2022-12-26T13:45:47;10.90;57.00
1680;DHT22;838;51.794;12.258;2022-12-26T13:53:27;10.60;57.50
1680;DHT22;838;51.794;12.258;2022-12-26T13:55:57;10.60;57.10
1680;DHT22;838;51.794;12.258;2022-12-26T14:04:00;10.40;60.00
1680;DHT22;838;51.794;12.258;2022-12-26T14:06:40;10.40;59.20
1680;DHT22;838;51.794;12.258;2022-12-26T14:20:57;10.30;56.50
1680;DHT22;838;51.794;12.258;2022-12-26T14:34:28;10.50;53.00
1680;DHT22;838;51.794;12.258;2022-12-26T14:40:27;10.50;52.40
1680;DHT22;838;51.794;12.258;2022-12-26T14:43:03;10.50;52.00
1680;DHT22;838;51.794;12.258;2022-12-26T14:58:45;10.20;52.00
1680;DHT22;838;51.794;12.258;2022-12-26T15:34:36;9.80;55.60
1680;DHT22;838;51.794;12.258;2022-12-26T15:42:41;9.80;56.90
1680;DHT22;838;51.794;12.258;2022-12-26T15:48:31;9.80;55.90
1680;DHT22;838;51.794;12.258;2022-12-26T15:51:00;9.80;56.80
1680;DHT22;838;51.794;12.258;2022-12-26T15:53:57;9.80;57.40
1680;DHT22;838;51.794;12.258;2022-12-26T15:56:55;9.80;57.40
1680;DHT22;838;51.794;12.258;2022-12-26T16:02:35;9.90;57.10
1680;DHT22;838;51.794;12.258;2022-12-26T16:05:36;9.90;56.70
1680;DHT22;838;51.794;12.258;2022-12-26T16:13:35;9.90;55.30
1680;DHT22;838;51.794;12.258;2022-12-26T16:16:01;10.00;54.10
1680;DHT22;838;51.794;12.258;2022-12-26T16:18:31;10.00;53.50
1680;DHT22;838;51.794;12.258;2022-12-26T16:21:05;10.00;53.10
1680;DHT22;838;51.794;12.258;2022-12-26T16:23:51;10.00;53.00
1680;DHT22;838;51.794;12.258;2022-12-26T16:26:27;10.00;52.60
1680;DHT22;838;51.794;12.258;2022-12-26T16:28:55;10.00;52.20
1680;DHT22;838;51.794;12.258;2022-12-26T16:31:27;10.00;52.00
1680;DHT22;838;51.794;12.258;2022-12-26T16:33:56;10.00;51.90
1680;DHT22;838;51.794;12.258;2022-12-26T16:36:28;10.00;51.40
1680;DHT22;838;51.794;12.258;2022-12-26T16:38:55;10.10;51.40
1680;DHT22;838;51.794;12.258;2022-12-26T16:41:28;10.10;50.70
1680;DHT22;838;51.794;12.258;2022-12-26T16:43:56;10.20;50.60
1680;DHT22;838;51.794;12.258;2022-12-26T16:46:27;10.20;49.90
1680;DHT22;838;51.794;12.258;2022-12-26T16:48:58;10.20;48.90
1680;DHT22;838;51.794;12.258;2022-12-26T16:51:38;10.30;48.70
1680;DHT22;838;51.794;12.258;2022-12-26T16:57:17;10.30;48.30
1680;DHT22;838;51.794;12.258;2022-12-26T16:59:56;10.30;48.50
1680;DHT22;838;51.794;12.258;2022-12-26T17:02:29;10.30;48.00
1680;DHT22;838;51.794;12.258;2022-12-26T17:05:03;10.30;47.40
1680;DHT22;838;51.794;12.258;2022-12-26T17:07:31;10.40;46.80
1680;DHT22;838;51.794;12.258;2022-12-26T17:09:59;10.50;46.00
1680;DHT22;838;51.794;12.258;2022-12-26T17:12:31;10.50;45.60
1680;DHT22;838;51.794;12.258;2022-12-26T17:15:00;10.60;45.30
1680;DHT22;838;51.794;12.258;2022-12-26T17:17:29;10.50;44.90
1680;DHT22;838;51.794;12.258;2022-12-26T17:19:57;10.40;44.50
1680;DHT22;838;51.794;12.258;2022-12-26T17:22:35;10.40;46.20
1680;DHT22;838;51.794;12.258;2022-12-26T17:27:43;10.20;45.70
1680;DHT22;838;51.794;12.258;2022-12-26T17:30:29;10.10;44.90
1680;DHT22;838;51.794;12.258;2022-12-26T17:33:08;10.00;43.80
1680;DHT22;838;51.794;12.258;2022-12-26T17:35:35;10.00;44.60
1680;DHT22;838;51.794;12.258;2022-12-26T17:38:03;10.00;44.80
1680;DHT22;838;51.794;12.258;2022-12-26T17:40:38;10.00;45.80
1680;DHT22;838;51.794;12.258;2022-12-26T17:43:29;10.10;44.00
1680;DHT22;838;51.794;12.258;2022-12-26T17:45:55;10.10;43.30
1680;DHT22;838;51.794;12.258;2022-12-26T17:48:21;10.10;44.10
1680;DHT22;838;51.794;12.258;2022-12-26T17:50:49;10.00;43.00
1680;DHT22;838;51.794;12.258;2022-12-26T17:55:47;10.20;42.00
1680;DHT22;838;51.794;12.258;2022-12-26T17:58:13;10.20;41.30
1680;DHT22;838;51.794;12.258;2022-12-26T18:00:40;10.20;41.10
1680;DHT22;838;51.794;12.258;2022-12-26T18:03:06;10.00;40.70
1680;DHT22;838;51.794;12.258;2022-12-26T18:05:33;9.90;43.10
1680;DHT22;838;51.794;12.258;2022-12-26T18:07:59;9.80;44.40
1680;DHT22;838;51.794;12.258;2022-12-26T18:10:32;9.60;44.80
1680;DHT22;838;51.794;12.258;2022-12-26T18:12:58;9.40;44.70
1680;DHT22;838;51.794;12.258;2022-12-26T18:15:25;9.20;44.50
1680;DHT22;838;51.794;12.258;2022-12-26T18:17:52;9.10;46.30
1680;DHT22;838;51.794;12.258;2022-12-26T18:20:24;9.00;47.40
1680;DHT22;838;51.794;12.258;2022-12-26T18:22:50;9.00;47.70
1680;DHT22;838;51.794;12.258;2022-12-26T18:25:19;9.00;47.70
1680;DHT22;838;51.794;12.258;2022-12-26T18:27:45;8.90;47.90
1680;DHT22;838;51.794;12.258;2022-12-26T18:30:20;8.90;48.80
1680;DHT22;838;51.794;12.258;2022-12-26T18:32:48;8.80;49.70
1680;DHT22;838;51.794;12.258;2022-12-26T18:35:14;8.70;50.30
1680;DHT22;838;51.794;12.258;2022-12-26T18:37:43;8.80;50.60
1680;DHT22;838;51.794;12.258;2022-12-26T18:40:30;8.80;50.50
1680;DHT22;838;51.794;12.258;2022-12-26T18:42:56;8.70;51.10
1680;DHT22;838;51.794;12.258;2022-12-26T18:45:22;8.80;50.70
1680;DHT22;838;51.794;12.258;2022-12-26T18:47:48;8.70;49.20
1680;DHT22;838;51.794;12.258;2022-12-26T18:50:14;8.60;44.20
1680;DHT22;838;51.794;12.258;2022-12-26T18:52:41;8.50;42.90
1680;DHT22;838;51.794;12.258;2022-12-26T18:55:07;8.40;40.00
1680;DHT22;838;51.794;12.258;2022-12-26T18:57:33;8.40;39.50
1680;DHT22;838;51.794;12.258;2022-12-26T18:59:58;8.30;38.50
1680;DHT22;838;51.794;12.258;2022-12-26T19:02:24;8.30;36.10
1680;DHT22;838;51.794;12.258;2022-12-26T19:04:50;8.30;35.80
1680;DHT22;838;51.794;12.258;2022-12-26T19:07:17;8.20;34.90
1680;DHT22;838;51.794;12.258;2022-12-26T19:09:46;8.20;33.40
1680;DHT22;838;51.794;12.258;2022-12-26T19:12:13;8.10;32.80
1680;DHT22;838;51.794;12.258;2022-12-26T19:14:40;8.00;31.90
1680;DHT22;838;51.794;12.258;2022-12-26T19:17:08;8.00;32.30
1680;DHT22;838;51.794;12.258;2022-12-26T19:19:33;8.00;32.00
1680;DHT22;838;51.794;12.258;2022-12-26T19:21:59;8.00;33.00
1680;DHT22;838;51.794;12.258;2022-12-26T19:24:25;8.00;32.10
1680;DHT22;838;51.794;12.258;2022-12-26T19:26:51;7.90;29.70
1680;DHT22;838;51.794;12.258;2022-12-26T19:29:16;7.80;29.60
1680;DHT22;838;51.794;12.258;2022-12-26T19:31:42;7.70;28.70
1680;DHT22;838;51.794;12.258;2022-12-26T19:34:08;7.70;29.10
1680;DHT22;838;51.794;12.258;2022-12-26T19:36:35;7.70;28.80
1680;DHT22;838;51.794;12.258;2022-12-26T19:39:01;7.60;28.60
1680;DHT22;838;51.794;12.258;2022-12-26T19:41:26;7.60;29.50
1680;DHT22;838;51.794;12.258;2022-12-26T19:43:57;7.50;28.00
1680;DHT22;838;51.794;12.258;2022-12-26T19:46:23;7.50;28.90
1680;DHT22;838;51.794;12.258;2022-12-26T19:48:49;7.40;29.40
1680;DHT22;838;51.794;12.258;2022-12-26T19:51:16;7.40;29.40
1680;DHT22;838;51.794;12.258;2022-12-26T19:53:44;7.40;30.00
1680;DHT22;838;51.794;12.258;2022-12-26T19:56:22;7.40;29.80
1680;DHT22;838;51.794;12.258;2022-12-26T19:58:49;7.40;29.40
1680;DHT22;838;51.794;12.258;2022-12-26T20:01:23;7.50;29.40
1680;DHT22;838;51.794;12.258;2022-12-26T20:03:53;7.40;28.30
1680;DHT22;838;51.794;12.258;2022-12-26T20:06:21;7.40;28.70
1680;DHT22;838;51.794;12.258;2022-12-26T20:08:48;7.40;28.30
1680;DHT22;838;51.794;12.258;2022-12-26T20:11:20;7.30;28.40
1680;DHT22;838;51.794;12.258;2022-12-26T20:13:46;7.30;28.90
1680;DHT22;838;51.794;12.258;2022-12-26T20:16:14;7.30;28.90
1680;DHT22;838;51.794;12.258;2022-12-26T20:18:41;7.30;29.00
1680;DHT22;838;51.794;12.258;2022-12-26T20:21:07;7.30;28.80
1680;DHT22;838;51.794;12.258;2022-12-26T20:23:34;7.40;28.50
1680;DHT22;838;51.794;12.258;2022-12-26T20:26:02;7.40;28.50
1680;DHT22;838;51.794;12.258;2022-12-26T20:28:29;7.40;28.50
1680;DHT22;838;51.794;12.258;2022-12-26T20:31:00;7.40;28.30
1680;DHT22;838;51.794;12.258;2022-12-26T20:33:27;7.40;28.50
1680;DHT22;838;51.794;12.258;2022-12-26T20:36:23;7.40;28.50
1680;DHT22;838;51.794;12.258;2022-12-26T20:38:51;7.30;29.30